Time;durP1;ratioP1;P1;durP2;ratioP2;P2;SDS_P1;SDS_P2;PMS_P1;PMS_P2;Temp;Humidity;BMP_temperature;BMP_pressure;BME280_temperature;BME280_humidity;BME280_pressure;Samples;Min_cycle;Max_cycle;Signal;HPM_P1;HPM_P2
2022/01/01 00:01:41;;;;;;;3.15;2.85;;;;;;;;;;4957233;29;20229;-81
2022/01/01 00:04:11;;;;;;;3.20;2.85;;;;;;;;;;4957652;29;20197;-82
2022/01/01 00:06:38;;;;;;;3.25;2.95;;;;;;;;;;4957060;29;20668;-82
2022/01/01 00:09:06;;;;;;;2.95;2.30;;;;;;;;;;4957321;29;20276;-82
2022/01/01 00:11:33;;;;;;;2.58;2.38;;;;;;;;;;4955820;28;20225;-82
2022/01/01 00:14:01;;;;;;;1.83;1.73;;;;;;;;;;4956641;29;20224;-82
2022/01/01 00:16:28;;;;;;;1.88;1.75;;;;;;;;;;4957008;29;20201;-82
2022/01/01 00:18:57;;;;;;;1.83;1.73;;;;;;;;;;4956294;29;20205;-82
2022/01/01 00:21:26;;;;;;;2.40;2.13;;;;;;;;;;4956823;29;20319;-82
2022/01/01 00:23:53;;;;;;;1.60;1.50;;;;;;;;;;4958145;29;20197;-81
2022/01/01 00:26:21;;;;;;;2.50;2.30;;;;;;;;;;4956585;29;20228;-81
2022/01/01 00:28:49;;;;;;;2.08;1.98;;;;;;;;;;4956842;29;20205;-81
2022/01/01 00:31:17;;;;;;;1.63;1.52;;;;;;;;;;4956731;29;20205;-81
2022/01/01 00:33:45;;;;;;;1.48;1.38;;;;;;;;;;4956019;29;20652;-82
2022/01/01 00:36:12;;;;;;;1.67;1.58;;;;;;;;;;4956774;29;20192;-81
2022/01/01 00:38:41;;;;;;;1.60;1.50;;;;;;;;;;4956661;29;20189;-81
2022/01/01 00:41:08;;;;;;;1.50;1.40;;;;;;;;;;4956335;29;20216;-81
2022/01/01 00:43:36;;;;;;;2.08;1.98;;;;;;;;;;4955821;29;20216;-81
2022/01/01 00:46:03;;;;;;;2.53;2.33;;;;;;;;;;4956419;29;20200;-81
2022/01/01 00:48:31;;;;;;;2.28;2.05;;;;;;;;;;4956183;29;20181;-81
2022/01/01 00:50:58;;;;;;;1.88;1.77;;;;;;;;;;4956262;29;20192;-81
2022/01/01 00:53:26;;;;;;;2.28;2.08;;;;;;;;;;4956308;29;20640;-82
2022/01/01 00:55:55;;;;;;;2.25;1.67;;;;;;;;;;4956145;29;20185;-81
2022/01/01 00:58:22;;;;;;;1.92;1.83;;;;;;;;;;4956114;29;20209;-81
2022/01/01 01:00:50;;;;;;;1.67;1.58;;;;;;;;;;4956228;29;20209;-82
2022/01/01 01:03:18;;;;;;;2.88;2.58;;;;;;;;;;4956280;29;20601;-81
2022/01/01 01:05:47;;;;;;;1.70;1.60;;;;;;;;;;4955648;28;20197;-82
2022/01/01 01:08:17;;;;;;;1.80;1.70;;;;;;;;;;4955982;29;20194;-82
2022/01/01 01:10:46;;;;;;;1.52;1.42;;;;;;;;;;4955766;29;20559;-81
2022/01/01 01:13:16;;;;;;;1.45;1.35;;;;;;;;;;4955443;29;20312;-81
2022/01/01 01:15:43;;;;;;;1.85;1.75;;;;;;;;;;4956266;29;20208;-81
2022/01/01 01:18:12;;;;;;;2.00;1.85;;;;;;;;;;4955667;29;20188;-82
2022/01/01 01:20:39;;;;;;;1.80;1.70;;;;;;;;;;4955629;29;20208;-81
2022/01/01 01:23:07;;;;;;;2.63;2.10;;;;;;;;;;4958260;28;20228;-82
2022/01/01 01:25:39;;;;;;;1.40;1.30;;;;;;;;;;4959742;29;20192;-81
2022/01/01 01:28:08;;;;;;;4.07;1.63;;;;;;;;;;4959871;29;20540;-81
2022/01/01 01:30:38;;;;;;;1.83;1.50;;;;;;;;;;4959317;29;20200;-82
2022/01/01 01:33:06;;;;;;;1.10;1.10;;;;;;;;;;4959564;29;20636;-82
2022/01/01 01:35:34;;;;;;;1.20;1.10;;;;;;;;;;4959473;29;20189;-82
2022/01/01 01:38:02;;;;;;;1.38;0.95;;;;;;;;;;4959515;29;20209;-81
2022/01/01 01:40:30;;;;;;;2.22;1.83;;;;;;;;;;4958512;29;20185;-81
2022/01/01 01:42:58;;;;;;;0.95;0.88;;;;;;;;;;4959039;29;20251;-82
2022/01/01 01:45:28;;;;;;;0.77;0.65;;;;;;;;;;4959296;29;20197;-82
2022/01/01 01:47:57;;;;;;;0.98;0.80;;;;;;;;;;4959184;29;20228;-82
2022/01/01 01:50:24;;;;;;;1.10;1.10;;;;;;;;;;4958362;29;20668;-82
2022/01/01 01:52:56;;;;;;;2.67;1.98;;;;;;;;;;4958624;29;20221;-82
2022/01/01 01:55:24;;;;;;;1.80;1.70;;;;;;;;;;4958874;29;20190;-82
2022/01/01 01:57:52;;;;;;;1.50;1.40;;;;;;;;;;4958339;29;20205;-82
2022/01/01 02:00:45;;;;;;;1.25;1.17;;;;;;;;;;4959343;29;20204;-82
2022/01/01 02:03:14;;;;;;;1.80;1.70;;;;;;;;;;4958601;29;20272;-82
2022/01/01 02:05:42;;;;;;;2.25;2.05;;;;;;;;;;4958560;29;20216;-82
2022/01/01 02:08:11;;;;;;;2.55;2.35;;;;;;;;;;4958450;29;20647;-81
2022/01/01 02:10:39;;;;;;;1.75;1.65;;;;;;;;;;4958446;29;20198;-82
2022/01/01 02:13:12;;;;;;;1.60;1.50;;;;;;;;;;4957966;28;20237;-82
2022/01/01 02:15:47;;;;;;;1.70;1.60;;;;;;;;;;4958563;29;20190;-82
2022/01/01 02:18:16;;;;;;;1.80;1.70;;;;;;;;;;4958376;29;20264;-81
2022/01/01 02:20:49;;;;;;;1.70;1.60;;;;;;;;;;4958314;29;20185;-82
2022/01/01 02:23:17;;;;;;;1.85;1.75;;;;;;;;;;4958584;29;20228;-82
2022/01/01 02:25:44;;;;;;;1.60;1.50;;;;;;;;;;4958297;29;20643;-82
2022/01/01 02:28:13;;;;;;;3.13;2.38;;;;;;;;;;4958224;29;20563;-81
2022/01/01 02:30:40;;;;;;;2.30;2.03;;;;;;;;;;4958034;29;20193;-82
2022/01/01 02:33:08;;;;;;;4.53;2.58;;;;;;;;;;4957794;28;20222;-81
2022/01/01 02:35:35;;;;;;;2.15;1.95;;;;;;;;;;4957380;29;20205;-81
2022/01/01 02:38:07;;;;;;;2.40;1.67;;;;;;;;;;4958197;29;20201;-81
2022/01/01 02:40:35;;;;;;;2.22;2.10;;;;;;;;;;4957997;29;20185;-82
2022/01/01 02:43:03;;;;;;;1.77;1.67;;;;;;;;;;4958140;29;20637;-81
2022/01/01 02:45:30;;;;;;;1.65;1.55;;;;;;;;;;4958107;29;20296;-81
2022/01/01 02:47:58;;;;;;;1.52;1.42;;;;;;;;;;4957432;29;20205;-82
2022/01/01 02:50:25;;;;;;;1.95;1.80;;;;;;;;;;4957883;29;20793;-82
2022/01/01 02:52:53;;;;;;;1.60;1.50;;;;;;;;;;4957786;29;20228;-82
2022/01/01 02:55:21;;;;;;;2.03;1.83;;;;;;;;;;4956939;29;20208;-82
2022/01/01 02:57:49;;;;;;;1.80;1.70;;;;;;;;;;4958055;29;20197;-82
2022/01/01 03:00:18;;;;;;;1.58;1.48;;;;;;;;;;4957699;29;20569;-82
2022/01/01 03:02:45;;;;;;;1.50;1.40;;;;;;;;;;4957315;29;20714;-82
2022/01/01 03:05:13;;;;;;;1.65;1.55;;;;;;;;;;4957635;29;20613;-82
2022/01/01 03:07:40;;;;;;;1.50;1.40;;;;;;;;;;4957108;29;20205;-82
2022/01/01 03:10:09;;;;;;;1.77;1.67;;;;;;;;;;4957352;29;20209;-82
2022/01/01 03:12:37;;;;;;;1.67;1.58;;;;;;;;;;4956534;28;20221;-82
2022/01/01 03:15:06;;;;;;;1.45;1.35;;;;;;;;;;4957473;29;20201;-81
2022/01/01 03:17:33;;;;;;;0.95;0.95;;;;;;;;;;4957157;29;20193;-82
2022/01/01 03:20:01;;;;;;;1.55;1.45;;;;;;;;;;4958457;29;20201;-81
2022/01/01 03:22:28;;;;;;;1.83;1.73;;;;;;;;;;4958381;29;20240;-82
2022/01/01 03:24:55;;;;;;;1.98;1.80;;;;;;;;;;4958742;29;20220;-82
2022/01/01 03:27:23;;;;;;;1.70;1.60;;;;;;;;;;4958490;29;20295;-81
2022/01/01 03:29:52;;;;;;;1.92;1.83;;;;;;;;;;4958328;29;20208;-81
2022/01/01 03:32:19;;;;;;;1.52;1.42;;;;;;;;;;4958189;29;20228;-81
2022/01/01 03:34:47;;;;;;;1.63;1.30;;;;;;;;;;4957914;29;20205;-82
2022/01/01 03:37:14;;;;;;;2.22;2.13;;;;;;;;;;4957894;29;20213;-82
2022/01/01 03:39:41;;;;;;;1.13;1.05;;;;;;;;;;4957783;29;20209;-80
2022/01/01 03:42:09;;;;;;;1.88;1.38;;;;;;;;;;4957875;29;20233;-81
2022/01/01 03:44:37;;;;;;;1.50;1.40;;;;;;;;;;4958102;28;20554;-82
2022/01/01 03:47:09;;;;;;;1.50;1.40;;;;;;;;;;4958886;29;20209;-81
2022/01/01 03:49:37;;;;;;;1.42;1.33;;;;;;;;;;4958825;29;20216;-81
2022/01/01 03:52:05;;;;;;;1.17;1.17;;;;;;;;;;4958799;29;20229;-82
2022/01/01 03:54:33;;;;;;;0.90;0.90;;;;;;;;;;4958426;29;20189;-82
2022/01/01 03:57:00;;;;;;;1.40;1.30;;;;;;;;;;4958904;29;20284;-82
2022/01/01 03:59:27;;;;;;;1.73;1.40;;;;;;;;;;4958247;29;20212;-82
2022/01/01 04:01:55;;;;;;;1.65;1.30;;;;;;;;;;4958503;29;20233;-81
2022/01/01 04:04:25;;;;;;;2.00;1.40;;;;;;;;;;4958500;29;20205;-82
2022/01/01 04:06:52;;;;;;;1.38;1.27;;;;;;;;;;4958005;29;20208;-82
2022/01/01 04:09:20;;;;;;;1.20;1.20;;;;;;;;;;4958317;28;20582;-82
2022/01/01 04:11:47;;;;;;;1.42;1.33;;;;;;;;;;4957154;29;20719;-82
2022/01/01 04:14:16;;;;;;;1.30;1.20;;;;;;;;;;4958588;29;20237;-82
2022/01/01 04:16:46;;;;;;;1.45;1.35;;;;;;;;;;4958580;29;20219;-81
2022/01/01 04:19:13;;;;;;;1.50;1.40;;;;;;;;;;4959022;29;20237;-82
2022/01/01 04:21:42;;;;;;;1.45;1.35;;;;;;;;;;4957976;29;20225;-82
2022/01/01 04:24:10;;;;;;;1.98;1.60;;;;;;;;;;4957910;29;20227;-82
2022/01/01 04:26:37;;;;;;;1.80;1.70;;;;;;;;;;4958350;29;20196;-82
2022/01/01 04:29:05;;;;;;;1.20;1.20;;;;;;;;;;4958320;29;20199;-82
2022/01/01 04:31:33;;;;;;;1.55;1.45;;;;;;;;;;4957787;29;20233;-82
2022/01/01 04:34:00;;;;;;;1.00;1.00;;;;;;;;;;4957841;29;20692;-82
2022/01/01 04:36:27;;;;;;;2.05;1.55;;;;;;;;;;4957368;29;20568;-81
2022/01/01 04:38:56;;;;;;;1.60;1.50;;;;;;;;;;4957202;29;20205;-82
2022/01/01 04:41:24;;;;;;;1.70;1.60;;;;;;;;;;4957262;29;20741;-82
2022/01/01 04:43:51;;;;;;;1.42;1.42;;;;;;;;;;4957734;29;20220;-82
2022/01/01 04:46:18;;;;;;;1.40;1.30;;;;;;;;;;4957170;29;20189;-81
2022/01/01 04:48:46;;;;;;;1.38;1.27;;;;;;;;;;4957514;29;20674;-82
2022/01/01 04:51:13;;;;;;;1.40;1.30;;;;;;;;;;4956525;29;20201;-82
2022/01/01 04:53:43;;;;;;;1.30;1.20;;;;;;;;;;4956635;29;20185;-81
2022/01/01 04:56:18;;;;;;;2.70;2.50;;;;;;;;;;4957003;28;20703;-81
2022/01/01 04:58:45;;;;;;;2.00;1.77;;;;;;;;;;4960956;29;20191;-81
2022/01/01 05:01:14;;;;;;;1.80;1.60;;;;;;;;;;4961243;29;20219;-81
2022/01/01 05:03:41;;;;;;;2.05;1.65;;;;;;;;;;4961356;29;20205;-81
2022/01/01 05:06:09;;;;;;;1.48;1.38;;;;;;;;;;4961617;29;20196;-81
2022/01/01 05:08:36;;;;;;;1.70;1.60;;;;;;;;;;4960235;29;20216;-82
2022/01/01 05:11:04;;;;;;;1.60;1.40;;;;;;;;;;4960668;29;20209;-82
2022/01/01 05:13:33;;;;;;;2.00;1.80;;;;;;;;;;4961125;28;20237;-82
2022/01/01 05:16:01;;;;;;;1.60;1.50;;;;;;;;;;4960626;28;20201;-81
2022/01/01 05:18:28;;;;;;;1.50;1.40;;;;;;;;;;4961057;29;20253;-82
2022/01/01 05:20:56;;;;;;;1.48;1.38;;;;;;;;;;4959998;29;20211;-82
2022/01/01 05:23:23;;;;;;;2.03;1.58;;;;;;;;;;4959937;29;20236;-82
2022/01/01 05:25:50;;;;;;;1.27;1.17;;;;;;;;;;4960336;29;20196;-82
2022/01/01 05:28:18;;;;;;;1.67;1.58;;;;;;;;;;4959770;29;20204;-82
2022/01/01 05:30:47;;;;;;;1.20;1.20;;;;;;;;;;4958870;29;20196;-82
2022/01/01 05:33:15;;;;;;;1.38;1.27;;;;;;;;;;4959439;29;20217;-82
2022/01/01 05:35:42;;;;;;;1.83;1.73;;;;;;;;;;4959403;29;20644;-82
2022/01/01 05:38:10;;;;;;;1.70;1.60;;;;;;;;;;4959492;29;20194;-81
2022/01/01 05:40:37;;;;;;;1.67;1.50;;;;;;;;;;4959443;29;20185;-82
2022/01/01 05:43:12;;;;;;;1.98;1.77;;;;;;;;;;4959453;29;20240;-82
2022/01/01 05:45:39;;;;;;;1.67;1.52;;;;;;;;;;4959974;29;20196;-82
2022/01/01 05:48:08;;;;;;;1.60;1.50;;;;;;;;;;4959743;29;20282;-83
2022/01/01 05:50:35;;;;;;;1.50;1.40;;;;;;;;;;4959600;29;20208;-82
2022/01/01 05:53:03;;;;;;;2.70;2.47;;;;;;;;;;4960100;29;20233;-83
2022/01/01 05:55:31;;;;;;;1.75;1.65;;;;;;;;;;4959118;29;20577;-82
2022/01/01 05:57:58;;;;;;;3.22;1.85;;;;;;;;;;4959095;29;20197;-83
2022/01/01 06:00:26;;;;;;;2.13;1.92;;;;;;;;;;4959413;29;20671;-83
2022/01/01 06:02:53;;;;;;;1.23;1.15;;;;;;;;;;4959086;29;20848;-82
2022/01/01 06:05:22;;;;;;;1.42;1.33;;;;;;;;;;4958470;29;20239;-83
2022/01/01 06:07:49;;;;;;;2.55;2.35;;;;;;;;;;4958554;28;20200;-83
2022/01/01 06:10:17;;;;;;;1.25;1.25;;;;;;;;;;4958396;29;20209;-83
2022/01/01 06:12:44;;;;;;;1.55;1.45;;;;;;;;;;4958423;29;20259;-82
2022/01/01 06:15:12;;;;;;;1.42;1.33;;;;;;;;;;4958747;29;20212;-82
2022/01/01 06:17:39;;;;;;;3.30;2.20;;;;;;;;;;4959008;29;20628;-83
2022/01/01 06:20:08;;;;;;;1.88;1.67;;;;;;;;;;4959050;29;20190;-82
2022/01/01 06:22:37;;;;;;;1.65;1.52;;;;;;;;;;4959115;29;20232;-83
2022/01/01 06:25:06;;;;;;;1.38;1.20;;;;;;;;;;4958191;29;20220;-82
2022/01/01 06:27:33;;;;;;;1.40;1.30;;;;;;;;;;4958519;29;20209;-82
2022/01/01 06:30:00;;;;;;;1.23;1.00;;;;;;;;;;4958423;29;20200;-82
2022/01/01 06:32:30;;;;;;;1.50;1.40;;;;;;;;;;4958327;29;20232;-83
2022/01/01 06:34:58;;;;;;;1.65;1.48;;;;;;;;;;4958884;29;20201;-82
2022/01/01 06:37:25;;;;;;;3.60;1.80;;;;;;;;;;4959128;29;20702;-82
2022/01/01 06:39:54;;;;;;;2.25;2.05;;;;;;;;;;4958744;29;20640;-83
2022/01/01 06:42:21;;;;;;;3.15;2.10;;;;;;;;;;4958831;29;20295;-82
2022/01/01 06:44:49;;;;;;;1.70;1.60;;;;;;;;;;4958210;29;20228;-82
2022/01/01 06:47:16;;;;;;;1.70;1.27;;;;;;;;;;4958965;29;20205;-82
2022/01/01 06:49:44;;;;;;;1.60;1.50;;;;;;;;;;4959017;29;20208;-82
2022/01/01 06:52:11;;;;;;;2.22;1.33;;;;;;;;;;4958164;29;20236;-82
2022/01/01 06:54:38;;;;;;;2.25;1.42;;;;;;;;;;4958444;29;20200;-82
2022/01/01 06:57:07;;;;;;;1.40;1.30;;;;;;;;;;4958492;29;20182;-82
2022/01/01 06:59:35;;;;;;;1.50;1.40;;;;;;;;;;4958108;29;20213;-83
2022/01/01 07:02:02;;;;;;;1.73;1.60;;;;;;;;;;4956838;29;20232;-83
2022/01/01 07:04:30;;;;;;;1.67;1.58;;;;;;;;;;4960420;29;20570;-83
2022/01/01 07:06:57;;;;;;;1.67;1.58;;;;;;;;;;4960214;29;20676;-82
2022/01/01 07:09:24;;;;;;;3.00;2.75;;;;;;;;;;4957746;29;20538;-82
2022/01/01 07:11:52;;;;;;;4.70;4.05;;;;;;;;;;4957040;29;20232;-83
2022/01/01 07:14:21;;;;;;;3.35;3.05;;;;;;;;;;4958221;29;20236;-83
2022/01/01 07:16:49;;;;;;;3.65;2.67;;;;;;;;;;4959525;29;20224;-82
2022/01/01 07:19:17;;;;;;;2.17;1.98;;;;;;;;;;4958355;28;20197;-82
2022/01/01 07:21:44;;;;;;;3.10;2.80;;;;;;;;;;4958286;29;20719;-82
2022/01/01 07:24:11;;;;;;;2.50;2.00;;;;;;;;;;4957688;28;20194;-82
2022/01/01 07:26:39;;;;;;;2.30;1.58;;;;;;;;;;4957467;29;20198;-82
2022/01/01 07:29:06;;;;;;;3.03;2.45;;;;;;;;;;4957720;29;20213;-82
2022/01/01 07:31:35;;;;;;;1.60;1.50;;;;;;;;;;4957901;29;20232;-81
2022/01/01 07:34:02;;;;;;;1.60;1.50;;;;;;;;;;4957291;29;20193;-81
2022/01/01 07:36:30;;;;;;;1.63;1.52;;;;;;;;;;4957564;29;20189;-81
2022/01/01 07:38:57;;;;;;;1.80;1.70;;;;;;;;;;4957785;29;20201;-81
2022/01/01 07:41:24;;;;;;;1.52;1.27;;;;;;;;;;4958183;29;20205;-82
2022/01/01 07:43:52;;;;;;;1.70;1.55;;;;;;;;;;4957187;29;20196;-82
2022/01/01 07:46:19;;;;;;;1.50;1.40;;;;;;;;;;4947340;29;20225;-81
2022/01/01 07:48:48;;;;;;;2.03;1.80;;;;;;;;;;4936995;29;20212;-81
2022/01/01 07:51:15;;;;;;;1.75;1.65;;;;;;;;;;4936143;29;20190;-81
2022/01/01 07:53:43;;;;;;;1.65;1.45;;;;;;;;;;4935431;29;20207;-81
2022/01/01 07:56:10;;;;;;;2.17;1.98;;;;;;;;;;4948283;29;20204;-82
2022/01/01 07:58:38;;;;;;;2.85;1.80;;;;;;;;;;4956267;29;20667;-82
2022/01/01 08:01:05;;;;;;;2.45;1.80;;;;;;;;;;4957030;29;20208;-82
2022/01/01 08:03:35;;;;;;;2.63;2.42;;;;;;;;;;4957230;29;20201;-82
2022/01/01 08:06:07;;;;;;;3.17;1.77;;;;;;;;;;4955859;29;20225;-82
2022/01/01 08:08:35;;;;;;;1.80;1.70;;;;;;;;;;4956852;29;20181;-82
2022/01/01 08:11:02;;;;;;;2.20;2.00;;;;;;;;;;4956565;29;20198;-83
2022/01/01 08:13:35;;;;;;;2.45;2.28;;;;;;;;;;4947729;29;20240;-83
2022/01/01 08:16:04;;;;;;;2.10;1.90;;;;;;;;;;4937572;29;20194;-82
2022/01/01 08:18:31;;;;;;;2.10;1.90;;;;;;;;;;4950321;29;20193;-83
2022/01/01 08:20:59;;;;;;;2.60;2.15;;;;;;;;;;4956913;29;20216;-82
2022/01/01 08:23:27;;;;;;;1.83;1.73;;;;;;;;;;4943011;29;20253;-82
2022/01/01 08:25:56;;;;;;;1.55;1.40;;;;;;;;;;4946911;29;20213;-82
2022/01/01 08:28:23;;;;;;;2.90;1.90;;;;;;;;;;4940237;29;20213;-83
2022/01/01 08:30:51;;;;;;;2.60;1.85;;;;;;;;;;4937392;29;20574;-83
2022/01/01 08:33:18;;;;;;;2.78;1.80;;;;;;;;;;4936280;29;20312;-84
2022/01/01 08:35:46;;;;;;;2.00;1.40;;;;;;;;;;4936751;29;20202;-86
2022/01/01 08:38:15;;;;;;;1.60;1.50;;;;;;;;;;4937059;29;20182;-85
2022/01/01 08:40:44;;;;;;;1.92;1.50;;;;;;;;;;4936492;29;20297;-85
2022/01/01 08:43:11;;;;;;;3.30;1.90;;;;;;;;;;4937437;29;20232;-85
2022/01/01 08:45:39;;;;;;;2.13;2.00;;;;;;;;;;4937013;29;20236;-85
2022/01/01 08:48:08;;;;;;;1.40;1.30;;;;;;;;;;4917891;29;20194;-86
2022/01/01 08:50:35;;;;;;;1.40;1.30;;;;;;;;;;4918292;29;20197;-85
2022/01/01 08:53:03;;;;;;;1.67;1.58;;;;;;;;;;4919208;29;20607;-82
2022/01/01 08:55:31;;;;;;;1.10;1.10;;;;;;;;;;4918594;29;20252;-82
2022/01/01 08:58:00;;;;;;;2.30;1.40;;;;;;;;;;4918596;29;20277;-83
2022/01/01 09:00:27;;;;;;;1.98;1.70;;;;;;;;;;4919488;29;20558;-83
2022/01/01 09:02:55;;;;;;;1.55;1.45;;;;;;;;;;4920029;29;20226;-83
2022/01/01 09:05:24;;;;;;;1.40;1.30;;;;;;;;;;4919858;29;20229;-83
2022/01/01 09:07:51;;;;;;;3.33;2.25;;;;;;;;;;4922596;29;20191;-83
2022/01/01 09:10:20;;;;;;;2.10;1.90;;;;;;;;;;4938175;29;20186;-83
2022/01/01 09:12:48;;;;;;;2.63;1.35;;;;;;;;;;4942825;29;20236;-83
2022/01/01 09:15:18;;;;;;;0.93;0.93;;;;;;;;;;4958072;29;20225;-83
2022/01/01 09:17:45;;;;;;;1.50;1.40;;;;;;;;;;4957554;29;20201;-83
2022/01/01 09:20:13;;;;;;;1.20;1.15;;;;;;;;;;4957264;29;20197;-82
2022/01/01 09:22:40;;;;;;;1.50;1.38;;;;;;;;;;4957456;29;20228;-82
2022/01/01 09:25:27;;;;;;;1.15;1.05;;;;;;;;;;4978670;23;20618;-89
2022/01/01 09:28:15;;;;;;;1.45;1.35;;;;;;;;;;4973579;28;20575;-90
2022/01/01 09:30:51;;;;;;;1.52;1.42;;;;;;;;;;4973620;28;20271;-89
2022/01/01 09:33:31;;;;;;;3.17;1.33;;;;;;;;;;4974178;28;20279;-89
2022/01/01 09:36:14;;;;;;;2.40;2.17;;;;;;;;;;4993448;28;20227;-89
2022/01/01 09:38:49;;;;;;;1.60;1.50;;;;;;;;;;4993974;28;20198;-89
2022/01/01 09:41:42;;;;;;;1.27;1.15;;;;;;;;;;4974475;28;20192;-89
2022/01/01 09:44:21;;;;;;;2.20;1.77;;;;;;;;;;4976927;28;20275;-89
2022/01/01 09:46:51;;;;;;;1.50;1.40;;;;;;;;;;4981826;28;20208;-89
2022/01/01 09:49:19;;;;;;;1.30;1.20;;;;;;;;;;4988410;28;20582;-89
2022/01/01 09:51:47;;;;;;;1.40;1.30;;;;;;;;;;5004262;28;20244;-89
2022/01/01 09:54:16;;;;;;;3.00;1.80;;;;;;;;;;5000206;28;20706;-89
2022/01/01 09:56:53;;;;;;;1.42;1.33;;;;;;;;;;4997096;28;20192;-89
2022/01/01 09:59:34;;;;;;;1.80;1.70;;;;;;;;;;4997086;28;20198;-89
2022/01/01 10:02:05;;;;;;;1.70;1.48;;;;;;;;;;4997359;28;20199;-90
2022/01/01 10:04:44;;;;;;;2.63;2.22;;;;;;;;;;4996918;28;20588;-89
2022/01/01 10:07:28;;;;;;;2.33;2.13;;;;;;;;;;4997554;28;20215;-88
2022/01/01 10:10:19;;;;;;;1.80;1.70;;;;;;;;;;5000714;28;20250;-88
2022/01/01 10:12:47;;;;;;;1.83;1.73;;;;;;;;;;5003146;28;20203;-89
2022/01/01 10:15:15;;;;;;;2.10;1.80;;;;;;;;;;5004325;28;20215;-89
2022/01/01 10:17:45;;;;;;;1.90;1.80;;;;;;;;;;5004365;28;20190;-88
2022/01/01 10:20:20;;;;;;;2.70;2.50;;;;;;;;;;5002242;28;20192;-89
2022/01/01 10:22:52;;;;;;;2.67;1.80;;;;;;;;;;4997477;28;20191;-88
2022/01/01 10:28:21;;;;;;;2.03;1.83;;;;;;;;;;4978064;28;20191;-88
2022/01/01 10:30:58;;;;;;;3.03;2.63;;;;;;;;;;4979573;28;20200;-88
2022/01/01 10:33:34;;;;;;;2.28;1.80;;;;;;;;;;4979047;28;20214;-88
2022/01/01 10:36:07;;;;;;;2.38;2.08;;;;;;;;;;4978845;28;20219;-89
2022/01/01 10:38:47;;;;;;;1.80;1.70;;;;;;;;;;4997258;28;20219;-86
2022/01/01 10:41:29;;;;;;;2.42;1.88;;;;;;;;;;4997232;28;20279;-88
2022/01/01 10:44:07;;;;;;;1.55;1.45;;;;;;;;;;4996378;28;20311;-88
2022/01/01 10:46:38;;;;;;;2.25;1.83;;;;;;;;;;4996640;28;20254;-88
2022/01/01 10:49:37;;;;;;;2.35;1.90;;;;;;;;;;4997742;28;20208;-88
2022/01/01 10:52:27;;;;;;;5.85;1.92;;;;;;;;;;4997074;28;20725;-88
2022/01/01 10:55:09;;;;;;;2.95;2.65;;;;;;;;;;4976076;28;20661;-89
2022/01/01 10:57:57;;;;;;;2.75;2.45;;;;;;;;;;4977237;28;20188;-89
2022/01/01 11:00:42;;;;;;;3.13;2.30;;;;;;;;;;4976671;28;20223;-89
2022/01/01 11:03:22;;;;;;;2.20;1.58;;;;;;;;;;4989233;28;20646;-89
2022/01/01 11:06:08;;;;;;;3.08;2.28;;;;;;;;;;4997791;28;20243;-88
2022/01/01 11:08:48;;;;;;;3.47;3.00;;;;;;;;;;4995517;28;20235;-89
2022/01/01 11:11:16;;;;;;;2.15;2.03;;;;;;;;;;4996475;28;20611;-89
2022/01/01 11:13:48;;;;;;;2.08;1.90;;;;;;;;;;4996231;28;20264;-89
2022/01/01 11:16:19;;;;;;;1.85;1.75;;;;;;;;;;4997629;28;20205;-89
2022/01/01 11:19:06;;;;;;;1.80;1.70;;;;;;;;;;4995790;28;20203;-89
2022/01/01 11:21:42;;;;;;;2.45;1.77;;;;;;;;;;4996077;28;20180;-88
2022/01/01 11:24:10;;;;;;;1.70;1.60;;;;;;;;;;4994755;28;20322;-89
2022/01/01 11:26:39;;;;;;;2.55;2.00;;;;;;;;;;4994556;28;20219;-89
2022/01/01 11:30:12;;;;;;;2.40;2.20;;;;;;;;;;4994855;28;20580;-90
2022/01/01 11:33:08;;;;;;;1.90;1.80;;;;;;;;;;4975269;28;20275;-90
2022/01/01 11:35:46;;;;;;;2.80;2.50;;;;;;;;;;4975074;28;20609;-90
2022/01/01 11:38:19;;;;;;;3.33;3.03;;;;;;;;;;4975362;28;20200;-89
2022/01/01 11:41:10;;;;;;;5.07;3.60;;;;;;;;;;4974801;28;20181;-89
2022/01/01 11:43:42;;;;;;;3.55;2.58;;;;;;;;;;4974847;28;20681;-90
2022/01/01 11:46:16;;;;;;;2.88;2.55;;;;;;;;;;4976930;28;20287;-90
2022/01/01 11:48:54;;;;;;;3.45;2.85;;;;;;;;;;4994017;28;20367;-90
2022/01/01 11:51:36;;;;;;;3.97;2.58;;;;;;;;;;4994385;28;20196;-89
2022/01/01 11:54:28;;;;;;;3.35;2.33;;;;;;;;;;4994170;28;20227;-90
2022/01/01 12:00:37;;;;;;;2.58;2.30;;;;;;;;;;4994426;28;20653;-89
2022/01/01 12:03:17;;;;;;;2.28;2.08;;;;;;;;;;4993677;28;20227;-90
2022/01/01 12:06:05;;;;;;;2.25;1.85;;;;;;;;;;4993693;28;20655;-89
2022/01/01 12:08:43;;;;;;;3.25;2.72;;;;;;;;;;4993933;28;20306;-89
2022/01/01 12:11:31;;;;;;;1.60;1.50;;;;;;;;;;4994126;28;20215;-89
2022/01/01 12:14:40;;;;;;;4.45;1.85;;;;;;;;;;4993926;28;20234;-90
2022/01/01 12:17:18;;;;;;;3.42;1.85;;;;;;;;;;4993744;28;20191;-90
2022/01/01 12:19:49;;;;;;;2.92;2.47;;;;;;;;;;4993832;28;20199;-90
2022/01/01 12:22:19;;;;;;;3.15;2.40;;;;;;;;;;4993259;28;20213;-90
2022/01/01 12:25:00;;;;;;;3.08;2.20;;;;;;;;;;4992415;28;20654;-89
2022/01/01 12:27:47;;;;;;;2.75;1.67;;;;;;;;;;4974273;28;20295;-89
2022/01/01 12:30:40;;;;;;;3.10;1.70;;;;;;;;;;4974237;28;20197;-89
2022/01/01 12:33:42;;;;;;;2.05;1.88;;;;;;;;;;4967729;28;20284;-90
2022/01/01 12:36:14;;;;;;;4.63;3.17;;;;;;;;;;4984888;28;20207;-90
2022/01/01 12:38:50;;;;;;;3.28;1.85;;;;;;;;;;4986447;28;20188;-90
2022/01/01 12:41:37;;;;;;;3.15;2.35;;;;;;;;;;4982225;28;20226;-89
2022/01/01 12:44:23;;;;;;;2.63;1.67;;;;;;;;;;4984833;28;20323;-89
2022/01/01 12:46:54;;;;;;;2.28;1.80;;;;;;;;;;4954388;29;20663;-90
2022/01/01 12:49:26;;;;;;;2.65;1.85;;;;;;;;;;4954627;29;20228;-90
2022/01/01 12:51:56;;;;;;;2.33;1.83;;;;;;;;;;4954300;29;20667;-89
2022/01/01 12:54:26;;;;;;;3.38;2.63;;;;;;;;;;4967460;28;20227;-89
2022/01/01 12:57:22;;;;;;;3.15;1.65;;;;;;;;;;4993565;28;20199;-90
2022/01/01 12:59:53;;;;;;;2.58;2.00;;;;;;;;;;4991571;28;20622;-89
2022/01/01 13:02:32;;;;;;;2.85;1.70;;;;;;;;;;4967573;28;20220;-90
2022/01/01 13:05:05;;;;;;;2.30;1.88;;;;;;;;;;4992477;28;20211;-88
2022/01/01 13:07:41;;;;;;;3.22;1.88;;;;;;;;;;4991770;28;20204;-89
2022/01/01 13:10:13;;;;;;;2.28;1.77;;;;;;;;;;4973728;28;20207;-87
2022/01/01 13:12:49;;;;;;;2.40;2.00;;;;;;;;;;4973796;28;20208;-89
2022/01/01 13:15:24;;;;;;;1.70;1.55;;;;;;;;;;4973788;28;20227;-89
2022/01/01 13:18:03;;;;;;;4.00;2.40;;;;;;;;;;4974219;28;20189;-89
2022/01/01 13:20:43;;;;;;;2.38;1.80;;;;;;;;;;4977323;28;20279;-89
2022/01/01 13:23:20;;;;;;;3.03;2.08;;;;;;;;;;4977388;28;20184;-89
2022/01/01 13:25:50;;;;;;;3.20;2.42;;;;;;;;;;4983261;28;20615;-89
2022/01/01 13:28:31;;;;;;;3.33;1.60;;;;;;;;;;4977358;28;20585;-89
2022/01/01 13:31:13;;;;;;;3.17;1.80;;;;;;;;;;4977551;28;20200;-88
2022/01/01 13:33:53;;;;;;;2.13;1.63;;;;;;;;;;4977716;28;20197;-88
2022/01/01 13:40:03;;;;;;;2.67;2.00;;;;;;;;;;4977301;28;20682;-89
2022/01/01 13:42:36;;;;;;;2.63;1.75;;;;;;;;;;4977397;28;20204;-90
2022/01/01 13:46:04;;;;;;;3.85;1.98;;;;;;;;;;4977413;28;20216;-89
2022/01/01 13:49:14;;;;;;;2.22;1.55;;;;;;;;;;4977465;28;20205;-89
2022/01/01 13:51:56;;;;;;;2.45;1.70;;;;;;;;;;4973672;28;20669;-89
2022/01/01 13:54:43;;;;;;;1.75;1.65;;;;;;;;;;4976984;28;20259;-89
2022/01/01 13:57:39;;;;;;;2.97;1.95;;;;;;;;;;4977076;28;20185;-89
2022/01/01 14:00:10;;;;;;;1.40;1.30;;;;;;;;;;4977493;28;20295;-89
2022/01/01 14:02:56;;;;;;;2.33;1.30;;;;;;;;;;4978538;28;20191;-89
2022/01/01 14:05:28;;;;;;;2.35;1.70;;;;;;;;;;4977320;28;20262;-89
2022/01/01 14:08:56;;;;;;;1.67;1.58;;;;;;;;;;4977067;28;20243;-89
2022/01/01 14:12:00;;;;;;;2.05;1.73;;;;;;;;;;4976758;28;20193;-89
2022/01/01 14:14:37;;;;;;;1.95;1.73;;;;;;;;;;4976609;28;20228;-89
2022/01/01 14:17:22;;;;;;;1.48;1.38;;;;;;;;;;4976645;28;20189;-90
2022/01/01 14:19:54;;;;;;;4.68;2.47;;;;;;;;;;4976523;28;20580;-89
2022/01/01 14:22:50;;;;;;;5.20;2.20;;;;;;;;;;4976333;28;20207;-89
2022/01/01 14:25:20;;;;;;;3.03;2.22;;;;;;;;;;4976649;28;20228;-90
2022/01/01 14:28:15;;;;;;;2.67;1.98;;;;;;;;;;4991983;28;20227;-91
2022/01/01 14:31:06;;;;;;;2.10;1.90;;;;;;;;;;4994367;28;20630;-90
2022/01/01 14:33:45;;;;;;;2.03;1.83;;;;;;;;;;4995770;28;20203;-89
2022/01/01 14:36:17;;;;;;;2.15;1.80;;;;;;;;;;4995900;28;20198;-89
2022/01/01 14:39:06;;;;;;;1.80;1.70;;;;;;;;;;4995619;28;20199;-89
2022/01/01 14:42:37;;;;;;;3.33;1.95;;;;;;;;;;4995853;28;20184;-90
2022/01/01 14:45:32;;;;;;;6.07;2.30;;;;;;;;;;4995607;28;20238;-90
2022/01/01 14:48:52;;;;;;;4.88;2.38;;;;;;;;;;4995578;28;20200;-89
2022/01/01 14:51:37;;;;;;;3.53;1.92;;;;;;;;;;4996673;28;20210;-89
2022/01/01 14:54:38;;;;;;;3.20;1.90;;;;;;;;;;4994561;28;20759;-89
2022/01/01 14:57:17;;;;;;;3.20;2.90;;;;;;;;;;4996409;28;20191;-89
2022/01/01 15:00:16;;;;;;;2.03;1.83;;;;;;;;;;4988317;28;20701;-89
2022/01/01 15:02:53;;;;;;;1.85;1.50;;;;;;;;;;4995573;28;20684;-89
2022/01/01 15:05:30;;;;;;;1.50;1.40;;;;;;;;;;4976398;28;20228;-88
2022/01/01 15:08:11;;;;;;;2.08;1.90;;;;;;;;;;4989133;28;20288;-88
2022/01/01 15:10:42;;;;;;;1.70;1.60;;;;;;;;;;4996078;28;20211;-89
2022/01/01 15:13:10;;;;;;;1.77;1.67;;;;;;;;;;4996009;28;20184;-89
2022/01/01 15:15:56;;;;;;;1.98;1.70;;;;;;;;;;4994283;28;20646;-90
2022/01/01 15:18:24;;;;;;;1.50;1.40;;;;;;;;;;4995820;28;20207;-89
2022/01/01 15:21:02;;;;;;;1.35;1.25;;;;;;;;;;4995701;28;20208;-90
2022/01/01 15:23:41;;;;;;;2.03;1.83;;;;;;;;;;4995496;28;20199;-89
2022/01/01 15:26:34;;;;;;;3.70;2.00;;;;;;;;;;4994647;28;20635;-89
2022/01/01 15:29:22;;;;;;;8.07;4.43;;;;;;;;;;4994908;28;20219;-89